NKS1326 KPBI-KFLL
Flight info
| Callsign | NKS1326 |
|---|---|
| Flight time | 0h 18m |
| Altitude | 7000 |
| Route | SPNER VKZ |
| Aircraft | A20N/M-SDE2E3FGHIRWXY/LB1 |
Departure
| Time | 2026-05-06 02:55 |
|---|---|
| Airport | Palm Beach International Airport (KPBI) |
Arrival
| Time | 2026-05-06 03:13 |
|---|---|
| Airport | Fort Lauderdale Hollywood International Airport (KFLL) |
| Time | Latitude | Longitude | Altitude | Speed | Heading |
|---|---|---|---|---|---|
| 2026-05-06 02:33 | 26.68637 | -80.09349 | 21 ft | 0 kts | 37° |
| 2026-05-06 02:43 | 26.68626 | -80.09357 | 26 ft | 2 kts | 37° |
| 2026-05-06 02:43 | 26.68613 | -80.09368 | 24 ft | 2 kts | 35° |
| 2026-05-06 02:44 | 26.68600 | -80.09378 | 26 ft | 2 kts | 31° |
| 2026-05-06 02:44 | 26.68585 | -80.09387 | 22 ft | 2 kts | 22° |
| 2026-05-06 02:44 | 26.68569 | -80.09392 | 23 ft | 2 kts | 358° |
| 2026-05-06 02:44 | 26.68562 | -80.09391 | 23 ft | 0 kts | 357° |
| 2026-05-06 02:48 | 26.68567 | -80.09392 | 23 ft | 4 kts | 357° |
| 2026-05-06 02:48 | 26.68614 | -80.09419 | 24 ft | 12 kts | 319° |
| 2026-05-06 02:48 | 26.68682 | -80.09505 | 22 ft | 15 kts | 310° |
| 2026-05-06 02:48 | 26.68707 | -80.09537 | 22 ft | 7 kts | 310° |
| 2026-05-06 02:49 | 26.68700 | -80.09583 | 22 ft | 9 kts | 236° |
| 2026-05-06 02:49 | 26.68645 | -80.09661 | 24 ft | 17 kts | 232° |
| 2026-05-06 02:49 | 26.68626 | -80.09794 | 23 ft | 18 kts | 281° |
| 2026-05-06 02:49 | 26.68631 | -80.09927 | 21 ft | 18 kts | 262° |
| 2026-05-06 02:50 | 26.68607 | -80.10086 | 25 ft | 20 kts | 260° |
| 2026-05-06 02:50 | 26.68587 | -80.10253 | 21 ft | 25 kts | 264° |
| 2026-05-06 02:50 | 26.68558 | -80.10429 | 21 ft | 14 kts | 257° |
| 2026-05-06 02:50 | 26.68556 | -80.10563 | 24 ft | 21 kts | 274° |
| 2026-05-06 02:51 | 26.68563 | -80.10683 | 21 ft | 14 kts | 274° |
| 2026-05-06 02:51 | 26.68565 | -80.10714 | 21 ft | 0 kts | 274° |
| 2026-05-06 02:52 | 26.68566 | -80.10730 | 25 ft | 7 kts | 274° |
| 2026-05-06 02:52 | 26.68552 | -80.10808 | 22 ft | 8 kts | 221° |
| 2026-05-06 02:53 | 26.68502 | -80.10815 | 21 ft | 9 kts | 185° |
| 2026-05-06 02:53 | 26.68447 | -80.10820 | 24 ft | 14 kts | 185° |
| 2026-05-06 02:53 | 26.68374 | -80.10826 | 21 ft | 2 kts | 184° |
| 2026-05-06 02:53 | 26.68336 | -80.10827 | 24 ft | 8 kts | 168° |
| 2026-05-06 02:54 | 26.68319 | -80.10786 | 25 ft | 7 kts | 89° |
| 2026-05-06 02:54 | 26.68318 | -80.10710 | 25 ft | 14 kts | 92° |
| 2026-05-06 02:54 | 26.68312 | -80.10380 | 21 ft | 85 kts | 91° |
| 2026-05-06 02:54 | 26.68268 | -80.09431 | 145 ft | 145 kts | 92° |
| 2026-05-06 02:55 | 26.68183 | -80.08268 | 962 ft | 152 kts | 95° |
| 2026-05-06 02:55 | 26.68052 | -80.07101 | 1982 ft | 152 kts | 97° |
| 2026-05-06 02:55 | 26.67908 | -80.05876 | 2670 ft | 170 kts | 96° |
| 2026-05-06 02:55 | 26.67843 | -80.04455 | 3319 ft | 195 kts | 90° |
| 2026-05-06 02:56 | 26.67544 | -80.02864 | 3998 ft | 225 kts | 105° |
| 2026-05-06 02:56 | 26.67203 | -80.01069 | 4767 ft | 253 kts | 99° |
| 2026-05-06 02:56 | 26.66861 | -79.99033 | 5657 ft | 279 kts | 108° |
| 2026-05-06 02:56 | 26.65889 | -79.97120 | 6436 ft | 289 kts | 133° |
| 2026-05-06 02:57 | 26.64292 | -79.95761 | 6789 ft | 290 kts | 152° |
| 2026-05-06 02:57 | 26.62440 | -79.94910 | 6946 ft | 288 kts | 167° |
| 2026-05-06 02:57 | 26.60504 | -79.94338 | 6997 ft | 287 kts | 170° |
| 2026-05-06 02:57 | 26.58533 | -79.94257 | 7008 ft | 283 kts | 188° |
| 2026-05-06 02:58 | 26.56593 | -79.94603 | 7006 ft | 282 kts | 194° |
| 2026-05-06 02:58 | 26.54670 | -79.95028 | 7008 ft | 282 kts | 194° |
| 2026-05-06 02:58 | 26.52740 | -79.95429 | 7008 ft | 282 kts | 193° |
| 2026-05-06 02:58 | 26.50807 | -79.95788 | 7003 ft | 282 kts | 192° |
| 2026-05-06 02:59 | 26.48859 | -79.96117 | 7000 ft | 283 kts | 191° |
| 2026-05-06 02:59 | 26.46912 | -79.96429 | 6981 ft | 282 kts | 191° |
| 2026-05-06 02:59 | 26.44961 | -79.96735 | 6993 ft | 282 kts | 190° |
| 2026-05-06 02:59 | 26.43033 | -79.97036 | 6994 ft | 283 kts | 190° |
| 2026-05-06 03:00 | 26.41058 | -79.97343 | 6981 ft | 283 kts | 191° |
| 2026-05-06 03:00 | 26.39115 | -79.97645 | 6992 ft | 282 kts | 191° |
| 2026-05-06 03:00 | 26.37198 | -79.97945 | 6901 ft | 280 kts | 190° |
| 2026-05-06 03:00 | 26.35274 | -79.98248 | 6560 ft | 279 kts | 190° |
| 2026-05-06 03:01 | 26.33358 | -79.98549 | 6204 ft | 275 kts | 190° |
| 2026-05-06 03:01 | 26.31458 | -79.98847 | 6053 ft | 279 kts | 190° |
| 2026-05-06 03:01 | 26.29532 | -79.99151 | 6033 ft | 277 kts | 190° |
| 2026-05-06 03:01 | 26.27639 | -79.99520 | 6034 ft | 276 kts | 197° |
| 2026-05-06 03:02 | 26.25850 | -80.00274 | 6034 ft | 274 kts | 208° |
| 2026-05-06 03:02 | 26.24198 | -80.01336 | 6035 ft | 274 kts | 212° |
| 2026-05-06 03:02 | 26.22557 | -80.02408 | 6033 ft | 274 kts | 212° |
| 2026-05-06 03:02 | 26.20912 | -80.03468 | 6033 ft | 272 kts | 212° |
| 2026-05-06 03:03 | 26.19279 | -80.04542 | 6032 ft | 273 kts | 217° |
| 2026-05-06 03:03 | 26.17983 | -80.06007 | 6034 ft | 266 kts | 238° |
| 2026-05-06 03:03 | 26.17251 | -80.07872 | 6031 ft | 263 kts | 253° |
| 2026-05-06 03:03 | 26.16682 | -80.09815 | 6024 ft | 264 kts | 252° |
| 2026-05-06 03:04 | 26.16106 | -80.11751 | 6023 ft | 263 kts | 252° |
| 2026-05-06 03:04 | 26.15524 | -80.13688 | 6026 ft | 263 kts | 253° |
| 2026-05-06 03:04 | 26.15106 | -80.15669 | 6035 ft | 264 kts | 263° |
| 2026-05-06 03:04 | 26.15016 | -80.17696 | 5924 ft | 262 kts | 271° |
| 2026-05-06 03:05 | 26.15082 | -80.19716 | 5602 ft | 260 kts | 273° |
| 2026-05-06 03:05 | 26.15164 | -80.21724 | 5186 ft | 259 kts | 272° |
| 2026-05-06 03:05 | 26.15242 | -80.23733 | 4750 ft | 259 kts | 272° |
| 2026-05-06 03:05 | 26.15321 | -80.25734 | 4321 ft | 259 kts | 272° |
| 2026-05-06 03:06 | 26.15400 | -80.27723 | 4091 ft | 259 kts | 272° |
| 2026-05-06 03:06 | 26.15480 | -80.29762 | 4025 ft | 262 kts | 272° |
| 2026-05-06 03:06 | 26.15562 | -80.31783 | 4025 ft | 262 kts | 272° |
| 2026-05-06 03:06 | 26.15644 | -80.33814 | 4027 ft | 262 kts | 273° |
| 2026-05-06 03:07 | 26.15723 | -80.35818 | 4021 ft | 262 kts | 271° |
| 2026-05-06 03:07 | 26.15383 | -80.37792 | 3986 ft | 261 kts | 245° |
| 2026-05-06 03:07 | 26.14284 | -80.39369 | 3656 ft | 261 kts | 218° |
| 2026-05-06 03:07 | 26.12643 | -80.40196 | 3242 ft | 261 kts | 188° |
| 2026-05-06 03:08 | 26.10873 | -80.40024 | 3062 ft | 260 kts | 158° |
| 2026-05-06 03:08 | 26.09429 | -80.38928 | 3025 ft | 245 kts | 129° |
| 2026-05-06 03:08 | 26.08494 | -80.37417 | 3022 ft | 230 kts | 118° |
| 2026-05-06 03:08 | 26.07940 | -80.35823 | 3019 ft | 213 kts | 101° |
| 2026-05-06 03:09 | 26.07785 | -80.34247 | 3002 ft | 198 kts | 92° |
| 2026-05-06 03:09 | 26.07780 | -80.32763 | 2873 ft | 184 kts | 89° |
| 2026-05-06 03:09 | 26.07775 | -80.31369 | 2602 ft | 176 kts | 90° |
| 2026-05-06 03:09 | 26.07769 | -80.30025 | 2360 ft | 174 kts | 90° |
| 2026-05-06 03:10 | 26.07762 | -80.28690 | 2125 ft | 173 kts | 90° |
| 2026-05-06 03:10 | 26.07754 | -80.27354 | 1900 ft | 168 kts | 89° |
| 2026-05-06 03:10 | 26.07748 | -80.26155 | 1683 ft | 146 kts | 90° |
| 2026-05-06 03:10 | 26.07742 | -80.25109 | 1512 ft | 125 kts | 90° |
| 2026-05-06 03:11 | 26.07737 | -80.24193 | 1347 ft | 114 kts | 90° |
| 2026-05-06 03:11 | 26.07732 | -80.23295 | 1199 ft | 116 kts | 90° |
| 2026-05-06 03:11 | 26.07727 | -80.22387 | 1049 ft | 115 kts | 90° |
| 2026-05-06 03:11 | 26.07721 | -80.21514 | 907 ft | 114 kts | 90° |
| 2026-05-06 03:12 | 26.07718 | -80.20625 | 768 ft | 117 kts | 90° |
| 2026-05-06 03:12 | 26.07713 | -80.19721 | 613 ft | 116 kts | 90° |
| 2026-05-06 03:12 | 26.07706 | -80.18823 | 461 ft | 116 kts | 90° |
| 2026-05-06 03:12 | 26.07706 | -80.17916 | 312 ft | 116 kts | 88° |
| 2026-05-06 03:13 | 26.07695 | -80.17022 | 119 ft | 117 kts | 88° |
| 2026-05-06 03:13 | 26.07695 | -80.16137 | 22 ft | 108 kts | 89° |
| 2026-05-06 03:13 | 26.07700 | -80.15509 | 15 ft | 52 kts | 88° |
| 2026-05-06 03:13 | 26.07699 | -80.15324 | 16 ft | 6 kts | 92° |
| 2026-05-06 03:14 | 26.07695 | -80.15233 | 16 ft | 17 kts | 92° |
| 2026-05-06 03:14 | 26.07689 | -80.15096 | 15 ft | 18 kts | 96° |
| 2026-05-06 03:14 | 26.07634 | -80.14959 | 18 ft | 21 kts | 123° |
| 2026-05-06 03:14 | 26.07581 | -80.14863 | 16 ft | 13 kts | 121° |
| 2026-05-06 03:15 | 26.07528 | -80.14764 | 16 ft | 8 kts | 122° |
| 2026-05-06 03:15 | 26.07494 | -80.14749 | 16 ft | 1 kts | 218° |
| 2026-05-06 03:15 | 26.07468 | -80.14783 | 16 ft | 10 kts | 228° |
| 2026-05-06 03:15 | 26.07408 | -80.14844 | 16 ft | 14 kts | 202° |
| 2026-05-06 03:16 | 26.07305 | -80.14855 | 15 ft | 14 kts | 169° |
| 2026-05-06 03:16 | 26.07240 | -80.14838 | 15 ft | 9 kts | 201° |
| 2026-05-06 03:16 | 26.07158 | -80.14866 | 15 ft | 16 kts | 197° |
| 2026-05-06 03:16 | 26.07052 | -80.14820 | 15 ft | 19 kts | 131° |
| 2026-05-06 03:17 | 26.06967 | -80.14717 | 17 ft | 20 kts | 131° |
| 2026-05-06 03:17 | 26.06884 | -80.14631 | 15 ft | 18 kts | 139° |
| 2026-05-06 03:17 | 26.06837 | -80.14585 | 17 ft | 5 kts | 138° |
| 2026-05-06 03:17 | 26.06796 | -80.14537 | 17 ft | 11 kts | 130° |
| 2026-05-06 03:18 | 26.06773 | -80.14468 | 15 ft | 9 kts | 92° |
| 2026-05-06 03:18 | 26.06782 | -80.14393 | 16 ft | 7 kts | 43° |
| 2026-05-06 03:18 | 26.06841 | -80.14382 | 16 ft | 5 kts | 356° |
| 2026-05-06 03:18 | 26.06877 | -80.14384 | 15 ft | 0 kts | 0° |
| 2026-05-06 03:19 | 26.06886 | -80.14384 | 15 ft | 0 kts | 360° |